Dutch
Home     News     Corporate     Events & Tours     Flight ops     Crew centre      
My transavia virtual    Join us    Last logs    Who is flying    Software    Training    VRTS     
 

view flightdata
view flightplan
view OFP
view flightlog



flightdata:
pilot: Richard Leloux
flight: TRA5194
from: LFPO (Paris Paris Orly)
to: EHAM (Amsterdam Schiphol)
date: 18-04-2019
departure: 22:47z
arrival: 23:49z
duration: 1:01
aircraft: B738 (PHHSM)
distance: 283 NM
touchdown: -185 ft/m @ 115 KIAS



flightplan:
-(FPL-TRA5194-IS
-B738/M-SDE2E3FGHIJ1RWXY/LB1
-LFPO2302
-N0373F240 EVX UN873 FERDI UY18 DENUT
-EHAM0057 EHEH
-EET/EBUR0032 EHAA0039 PBN/B1D1O1 DOF/190418 REG/PHHSM SEL/MQHK CODE/4841A5 OPR/TRA RVR/200 RMK/TCAS)



operational flightplan (OFP):
DISPATCH BRIEFING (TEL:
--------- --------- --------- --------- --------- --------- ---------  
PREDEPARTURE ATC CLEARANCE:
.
.
--------- --------- --------- --------- --------- --------- ---------  
OFP  2    18 APR 19/22:47
                                    OBS  N/A

TRA5194    C/S TRA5194  LFPO/ORY   EHAM/AMS         CRZ SYS      CI 7
18 APR 19  PH-HSM       2130/2130  2237/2242        GND DIST      305
B737-800 CFTAB:.....    CTOT:....  STA  2235        AIR DIST      305
                                                    AVG W/C         0
MAXIMUM    ZFW  62731  LAW  66360  TOW  78975       AVG ISA       M08
ESTIMATED  ZFW  59430  LAW  62490  TOW  64917       F-F FACTOR    2.8
ACTUAL     ZFW  .....  LAW  .....  TOW  .....
--------- --------- --------- --------- --------- --------- ---------
TRIP        2427   0057           .....  .....
CONT         186   0005           .....  .....
ALTN         773   0017  EHEH     .....  .....  ....
FINAL       1115   0030           .....  .....
ADDNL        986   0027           .....  .....
TANKERING                  
PLN TOF     4501   0149
DIFF        ....   ....
PLN TOF     ....   ....  (CORRECTED)   
EXTRA          0   ....                  
TOF         4501   ....                 
TAXI         120   ....                  
BLOCK       5607   ....        
--------- --------- --------- --------- --------- --------- ---------
REASON EXTRA FUEL      MATRIX FUEL:
O ECN-ECONAMICAL     O TMP-TEMPORARILY      O ATC-AIR TRAFFIC CNTRL
O FOB-FUEL ON.BOARD  O MSC-MISCELLANEOUS    O FPC-FLIGHT PLN CORR
O WXR-WEATHER        O TEC-TECHNICAL        ACT.CI/CRZ USED: . . .   

--------- --------- --------- --------- --------- --------- ---------

ZFW ZFW 1000 : PLN TOF   XXXXX/TRIP XXXXX 00 MIN HOLD DEST: 0 EXTRA
ZFW ZFW-1000 : PLN TOF   XXXXX/TRIP XXXXX
--------- --------- --------- --------- --------- --------- ---------
COMMANDERS NAME:                           SIGNATURE:

--------- --------- --------- --------- --------- --------- ---------
FROM:  LFPO ELEV291      TO: EHAM ELEV-11        ALTN: EHEH ELEV  74
ATC C/S     : TRA51TRA5194            AVG ISA : M08
CO-ROUTE    :                        AVG TT  :   
FMC-RES FUEL: 1888                   AVG W/C :    0
CRZ ALT     : FL240                  FL310
CI          : CI 7                   FL200     360/000
                                     FL100

LFPO/26  N0373F240 EVX7P EVX UN873 FERDI UY18 DENUT DENU1A EHAM/36R

--------- --------- --------- --------- --------- --------- ---------
.
.
--------- --------- --------- --------- --------- --------- ---------
RVSM ALT CHECK:  FL:...... LEFT: ...... STBY: ...... RIGHT: ......

--------- --------- --------- --------- --------- --------- ---------
DESTINATION ALTERNATE EHEH
--------- --------- --------- --------- --------- --------- ---------

--------- --------- --------- --------- --------- --------- ---------
--------- --------- --------- --------- --------- --------- ---------
ALTERNATE SUMMARY
--------- --------- --------- --------- --------- --------- ---------
      ALTN        DIST   LVL       WC TIME  FUEL VIA
      EHEH/21       60  FL070    0 0017   773 DCT
INFO/EHRD/24      214  FL290    0 0041  1781 AMS DCT EEL EEL2R
INFO/EBBR/25R     287  FL190    0 0057  2424 AMS DCT EEL N872 LILSI
                                           Z310 BATAK Z311 BEKEM
                                           BEKE3B
INFO/EHBK/21      280  FL070    0 0106  2725 AMS DCT EEL N125 SPY
                                           N852 LOPIK V33 EHN P57
                                           OSGOS OSGO1M
--------- --------- --------- --------- --------- --------- ---------

-(FPL-TRA5194-IS
-B738/M-SDE2E3FGHIJ1RWXY/LB1
-LFPO2302
-N0373F240 EVX UN873 FERDI UY18 DENUT
-EHAM0057 EHEH
-EET/EBUR0032 EHAA0039 PBN/B1D1O1 DOF/190418 REG/PHHSM SEL/MQHK CODE/4841A5 OPR/TRA RVR/200 RMK/TCAS)

WEATHER BRIEFING - GENERATED 18 APR 2019 22:47 UTC
--------------------------------------------------------------------------------

LFPO EHAM EHEH EHRD EBBR EHBK

--------------------------------------------------------------------------------
ORIGIN: LFPO (PARIS)
--------------------------------------------------------------------------------
LFPO 182230Z 05007KT CAVOK 15/06 Q1021 NOSIG

LFPO 181700Z 1818/1924 07010KT CAVOK PROB40
      TEMPO 1919/1922 02015G25KT SHRA SCT060CB


--------------------------------------------------------------------------------
DESTINATION: EHAM (SCHIPHOL)
--------------------------------------------------------------------------------
EHAM 182225Z 08011KT CAVOK 15/03 Q1027 NOSIG

EHAM 181634Z 1818/1924 08011KT CAVOK
      BECMG 1916/1919 05008KT


--------------------------------------------------------------------------------
ALTERNATE: EHEH (EINDHOVEN)
--------------------------------------------------------------------------------
EHEH 182225Z AUTO 06006KT 9999 NCD 15/03 Q1025 BLU

EHEH 181632Z 1818/1924 07011KT CAVOK


--------------------------------------------------------------------------------
ALTERNATE: EHRD (ROTTERDAM)
--------------------------------------------------------------------------------
EHRD 182225Z AUTO 06007KT 9999 NSC 11/05 Q1026 NOSIG

EHRD 181633Z 1818/1924 08011KT CAVOK
      BECMG 1916/1919 05006KT


--------------------------------------------------------------------------------
ALTERNATE: EBBR (BRUSSELS)
--------------------------------------------------------------------------------
EBBR 182220Z 08003KT CAVOK 14/04 Q1024 NOSIG

EBBR 181700Z 1818/1924 08008KT CAVOK=  EDDF 181700Z 1818/1924 08010KT CAVOK
      BECMG 1823/1901 02007KT
      BECMG 1910/1912 08009KT


--------------------------------------------------------------------------------
ALTERNATE: EHBK (MAASTRICHT)
--------------------------------------------------------------------------------
EHBK 182225Z AUTO 07009KT 9999 NSC 13/04 Q1025

EHBK 181649Z 1818/1924 09008KT CAVOK


NOTAM BRIEFING - GENERATED 18 APR 2019 22:48 UTC
--------------------------------------------------------------------------------

LFPO EHAM EHEH EHEH EHRD EBBR EHBK

--------------------------------------------------------------------------------
GLOBAL TRANSAVIA.COM VIRTUAL NOTAMS
--------------------------------------------------------------------------------
REF:NIL PLEASE CONTACT OPERATIONS IN CASE OF STRUCTURAL FLIGHTPLAN ERRORS ON FLIGHT-OPS@TRANSAVIA-VIRTUAL.COM
VALID:UFN

REF:NIL
PLEASE CHECK ACARS EVERY 10 MINUTES WHEN FLYING WITH SOUND OFF. AN NEW ACARS MESSAGE PRODUCE A SOUND SIGNAL UNTILL ITS READ. FLOWCONTROL DON'T RECEIVE MUCH REACTION ON OUTGOING ACARS MESSAGES ACCORDING FLIGHTSTATUS.
SOURCE: SPL/HV/OCC/
END VALID: UFN

REF:NIL
PLEASE CONTACT FLOWCONTROL IN CASE OF PROBLEMS WITH ROUTINGS
SOURCE: SPL/HV/OCC/
END VALID: UFN

REF:NIL
IN CASE OF ENGINE-OUT FLY V2 OR V2 20 MAX. UNTIL ABOVE MSA.
LEVEL-OFF AT AN ALTITUDE ROUNDED OFF TO THE FIRST 1000 FT OF THE HIGHEST MSA.
E.G: MSA EHAM; 1.7 AND 2.3 LEVEL-OFF 3000 FT. AFTER LANDING MAKE A REP TO OCC ON 131.975
SOURCE:SPL/HV/OCC
END VALID:UFN



flightlog:
Pilot : Richard Leloux
Flight: TRA5194
From  : LFPO Paris
To    : EHAM Schiphol

[FLIGHTLOG] 1.5.4
18-04-2019 22:47:14z, logging started
18-04-2019 22:51:09z, take-off at 184 KIAS
18-04-2019 22:51:09z, pos report: 184 KIAS, 00 309 ft, heading 063, winds 040 @ 07 kts
18-04-2019 22:51:09z, flying online @ VATSIM (TRA1G)
18-04-2019 22:51:09z, position: LFPO - Paris
18-04-2019 22:51:15z, retracted gear at 188 KIAS and 203 ft AGL
18-04-2019 22:52:02z, flaps set to 0%
18-04-2019 23:02:13z, pos report: 296 KIAS, 27 140 ft, heading 013, winds 337 @ 25 kts
18-04-2019 23:17:14z, pos report: 261 KIAS, 30 001 ft, heading 017, winds 331 @ 48 kts
18-04-2019 23:32:15z, pos report: 242 KIAS, 09 358 ft, heading 044, winds 124 @ 13 kts
18-04-2019 23:36:35z, below glideslope
18-04-2019 23:37:53z, deployed spoilers
18-04-2019 23:38:25z, retracted spoilers
18-04-2019 23:38:58z, deployed spoilers
18-04-2019 23:39:08z, flaps set to 13%
18-04-2019 23:39:24z, flaps set to 25%
18-04-2019 23:39:31z, flaps set to 38%
18-04-2019 23:39:53z, flaps set to 50%
18-04-2019 23:39:57z, intercepted localizer
18-04-2019 23:40:03z, lowered gear at 153 KIAS and 1967 ft AGL
18-04-2019 23:40:13z, on glideslope
18-04-2019 23:40:18z, flaps set to 62%
18-04-2019 23:40:35z, flaps set to 75%
18-04-2019 23:41:24z, flaps set to 87%
18-04-2019 23:41:36z, flaps set to 100%
18-04-2019 23:43:00z, below glideslope
18-04-2019 23:43:05z, on glideslope
18-04-2019 23:43:06z, below glideslope
18-04-2019 23:43:37z, touchdown: -185ft/m at 115 KIAS
18-04-2019 23:43:37z, pos report: 115 KIAS, 00 014 ft, heading 057, winds 070 @ 10 kts
18-04-2019 23:43:37z, flying online @ VATSIM (TRA1G)
18-04-2019 23:43:37z, position: EHAM - Schiphol
18-04-2019 23:43:38z, deployed spoilers
18-04-2019 23:44:19z, flaps set to 87%
18-04-2019 23:44:24z, flaps set to 75%
18-04-2019 23:44:27z, flaps set to 62%
18-04-2019 23:44:29z, flaps set to 50%
18-04-2019 23:44:33z, flaps set to 38%
18-04-2019 23:44:36z, flaps set to 25%
18-04-2019 23:44:40z, flaps set to 13%
18-04-2019 23:44:49z, flaps set to 0%
18-04-2019 23:45:14z, retracted spoilers
18-04-2019 23:47:16z, pos report: 007 KIAS, 00 012 ft, heading 015, winds 070 @ 10 kts
18-04-2019 23:49:08z, parking brake set
18-04-2019 23:50:31z, logging ended

©2009-2020, transavia virtual. All rights reserved. This website is only meant for simulation purposes.
This website is not owned by transavia, nor is transavia responsible for the content of this website.